createdAt,value
2023-01-17T00:01:15.075Z,5.98
2023-01-17T00:04:00.490Z,6.02
2023-01-17T00:06:45.752Z,6.04
2023-01-17T00:09:33.298Z,6.05
2023-01-17T00:12:02.119Z,6.07
2023-01-17T00:14:29.147Z,6.05
2023-01-17T00:16:55.886Z,6.05
2023-01-17T00:19:41.239Z,6.04
2023-01-17T00:22:31.184Z,6.03
2023-01-17T00:25:16.504Z,6.02
2023-01-17T00:27:43.352Z,5.91
2023-01-17T00:30:10.939Z,5.93
2023-01-17T00:32:37.524Z,5.93
2023-01-17T00:35:04.698Z,5.95
2023-01-17T00:37:31.373Z,5.93
2023-01-17T00:39:57.909Z,5.95
2023-01-17T00:42:25.395Z,5.89
2023-01-17T00:45:10.898Z,5.91
2023-01-17T00:47:57.039Z,5.89
2023-01-17T00:50:42.640Z,5.89
2023-01-17T00:53:27.884Z,5.89
2023-01-17T00:56:13.142Z,5.85
2023-01-17T00:58:58.261Z,5.89
2023-01-17T01:01:45.466Z,5.88
2023-01-17T01:04:30.735Z,5.91
2023-01-17T01:07:16.228Z,5.92
2023-01-17T01:10:01.443Z,5.84
2023-01-17T01:12:46.740Z,5.82
2023-01-17T01:15:32.067Z,5.79
2023-01-17T01:18:17.464Z,5.73
2023-01-17T01:21:02.672Z,5.69
2023-01-17T01:23:47.548Z,5.71
2023-01-17T01:26:32.745Z,5.73
2023-01-17T01:29:17.916Z,5.73
2023-01-17T01:32:03.265Z,5.76
2023-01-17T01:34:30.082Z,5.77
2023-01-17T01:36:56.672Z,5.84
2023-01-17T01:39:23.261Z,5.89
2023-01-17T01:41:50.003Z,6.00
2023-01-17T01:44:50.088Z,6.09
2023-01-17T01:47:38.779Z,6.13
2023-01-17T01:50:08.994Z,6.16
2023-01-17T01:52:39.362Z,6.22
2023-01-17T01:55:13.153Z,6.25
2023-01-17T01:57:46.231Z,6.26
2023-01-17T02:00:17.942Z,6.22
2023-01-17T02:02:48.548Z,6.27
2023-01-17T02:05:18.185Z,6.29
2023-01-17T02:08:01.895Z,6.31
2023-01-17T02:10:32.596Z,6.31
2023-01-17T02:13:00.418Z,6.30
2023-01-17T02:15:33.280Z,6.28
2023-01-17T02:18:08.789Z,6.28
2023-01-17T02:20:59.114Z,6.23
2023-01-17T02:23:50.333Z,6.18
2023-01-17T02:27:04.939Z,6.15
2023-01-17T02:29:52.589Z,6.09
2023-01-17T02:32:36.303Z,6.09
2023-01-17T02:35:17.452Z,5.98
2023-01-17T02:37:48.399Z,6.01
2023-01-17T02:40:31.089Z,5.98
2023-01-17T02:43:05.661Z,5.96
2023-01-17T02:45:32.478Z,5.93
2023-01-17T02:47:59.361Z,5.90
2023-01-17T02:50:38.719Z,5.89
2023-01-17T02:53:17.543Z,5.89
2023-01-17T02:55:53.165Z,5.90
2023-01-17T02:58:32.747Z,5.92
2023-01-17T03:00:59.595Z,5.91
2023-01-17T03:03:59.011Z,5.89
2023-01-17T03:06:35.212Z,5.88
2023-01-17T03:09:02.939Z,5.82
2023-01-17T03:11:29.621Z,5.84
2023-01-17T03:13:57.325Z,5.84
2023-01-17T03:16:27.442Z,5.82
2023-01-17T03:18:54.228Z,5.81
2023-01-17T03:21:23.156Z,5.78
2023-01-17T03:23:50.107Z,5.78
2023-01-17T03:26:16.973Z,5.81
2023-01-17T03:28:43.987Z,5.81
2023-01-17T03:31:15.118Z,5.83
2023-01-17T03:33:41.758Z,5.85
2023-01-17T03:36:09.062Z,5.90
2023-01-17T03:38:37.380Z,5.94
2023-01-17T03:41:05.029Z,6.01
2023-01-17T03:43:31.817Z,6.06
2023-01-17T03:46:07.298Z,6.13
2023-01-17T03:48:34.209Z,6.14
2023-01-17T03:51:00.978Z,6.19
2023-01-17T03:53:27.682Z,6.21
2023-01-17T03:55:54.498Z,6.26
2023-01-17T03:58:21.147Z,6.27
2023-01-17T04:00:48.006Z,6.30
2023-01-17T04:03:14.804Z,6.28
2023-01-17T04:05:41.566Z,6.28
2023-01-17T04:08:08.400Z,6.29
2023-01-17T04:10:35.137Z,6.26
2023-01-17T04:13:01.885Z,6.26
2023-01-17T04:15:28.855Z,6.22
2023-01-17T04:17:55.840Z,6.23
2023-01-17T04:20:32.994Z,6.18
2023-01-17T04:22:59.775Z,6.20
2023-01-17T04:25:26.693Z,6.16
2023-01-17T04:27:54.287Z,6.11
2023-01-17T04:30:21.207Z,6.06
2023-01-17T04:32:47.923Z,6.03
2023-01-17T04:35:14.857Z,6.01
2023-01-17T04:37:41.621Z,6.00
2023-01-17T04:40:09.013Z,5.94
2023-01-17T04:42:35.665Z,5.90
2023-01-17T04:45:02.407Z,5.85
2023-01-17T04:47:29.131Z,5.84
2023-01-17T04:49:55.968Z,5.84
2023-01-17T04:52:22.615Z,5.84
2023-01-17T04:54:49.600Z,5.84
2023-01-17T04:57:17.399Z,5.82
2023-01-17T04:59:45.009Z,5.80
2023-01-17T05:02:12.697Z,5.79
2023-01-17T05:04:39.444Z,5.76
2023-01-17T05:07:06.393Z,5.76
2023-01-17T05:09:33.245Z,5.75
2023-01-17T05:12:00.092Z,5.72
2023-01-17T05:14:27.181Z,5.72
2023-01-17T05:16:55.394Z,5.67
2023-01-17T05:19:23.460Z,5.66
2023-01-17T05:21:50.263Z,5.66
2023-01-17T05:24:17.108Z,5.65
2023-01-17T05:26:43.833Z,5.64
2023-01-17T05:29:11.481Z,5.61
2023-01-17T05:31:38.260Z,5.57
2023-01-17T05:34:05.129Z,5.54
2023-01-17T05:36:31.815Z,5.54
2023-01-17T05:38:58.589Z,5.48
2023-01-17T05:41:25.389Z,5.46
2023-01-17T05:43:52.093Z,5.39
2023-01-17T05:46:18.739Z,5.40
2023-01-17T05:48:45.766Z,5.41
2023-01-17T05:51:12.729Z,5.44
2023-01-17T05:53:39.345Z,5.44
2023-01-17T05:56:06.204Z,5.37
2023-01-17T05:58:33.053Z,5.35
2023-01-17T06:00:59.695Z,5.35
2023-01-17T06:03:26.442Z,5.31
2023-01-17T06:05:53.402Z,5.29
2023-01-17T06:08:20.023Z,5.25
2023-01-17T06:10:46.798Z,5.19
2023-01-17T06:13:15.652Z,5.21
2023-01-17T06:15:42.777Z,5.20
2023-01-17T06:18:11.756Z,5.18
2023-01-17T06:20:38.906Z,5.19
2023-01-17T06:23:07.638Z,5.16
2023-01-17T06:25:43.801Z,5.20
2023-01-17T06:28:12.038Z,5.17
2023-01-17T06:30:39.207Z,5.19
2023-01-17T06:33:06.177Z,5.20
2023-01-17T06:35:33.442Z,5.22
2023-01-17T06:38:00.742Z,5.24
2023-01-17T06:40:28.688Z,5.27
2023-01-17T06:43:00.591Z,5.28
2023-01-17T06:45:27.718Z,5.28
2023-01-17T06:47:54.489Z,5.26
2023-01-17T06:50:21.263Z,5.29
2023-01-17T06:53:05.709Z,5.31
2023-01-17T06:55:33.891Z,5.33
2023-01-17T06:58:02.963Z,5.36
2023-01-17T07:00:31.690Z,5.37
2023-01-17T07:02:58.416Z,5.42
2023-01-17T07:05:25.336Z,5.44
2023-01-17T07:07:52.132Z,5.47
2023-01-17T07:10:18.885Z,5.55
2023-01-17T07:12:45.801Z,5.63
2023-01-17T07:15:13.496Z,5.68
2023-01-17T07:17:40.128Z,5.71
2023-01-17T07:20:07.583Z,5.76
2023-01-17T07:22:34.323Z,5.82
2023-01-17T07:25:01.094Z,5.85
2023-01-17T07:27:30.463Z,5.77
2023-01-17T07:29:58.121Z,5.85
2023-01-17T07:32:26.789Z,5.94
2023-01-17T07:34:54.525Z,6.02
2023-01-17T07:37:21.680Z,6.08
2023-01-17T07:39:48.254Z,6.13
2023-01-17T07:42:15.745Z,6.18
2023-01-17T07:44:44.237Z,6.20
2023-01-17T07:47:11.749Z,6.18
2023-01-17T07:49:38.737Z,6.17
2023-01-17T07:52:09.045Z,6.20
2023-01-17T07:54:35.989Z,6.25
2023-01-17T07:57:03.271Z,6.30
2023-01-17T07:59:30.297Z,6.35
2023-01-17T08:01:56.999Z,6.42
2023-01-17T08:04:26.490Z,6.47
2023-01-17T08:06:55.139Z,6.49
2023-01-17T08:09:22.093Z,6.59
2023-01-17T08:11:49.141Z,6.64
2023-01-17T08:14:15.992Z,6.69
2023-01-17T08:16:42.892Z,6.74
2023-01-17T08:19:10.300Z,6.75
2023-01-17T08:21:37.092Z,6.79
2023-01-17T08:24:03.944Z,6.78
2023-01-17T08:26:30.693Z,6.82
2023-01-17T08:29:00.617Z,6.79
2023-01-17T08:31:32.452Z,6.87
2023-01-17T08:33:59.451Z,6.87
2023-01-17T08:36:27.855Z,6.88
2023-01-17T08:38:55.502Z,6.90
2023-01-17T08:41:23.611Z,6.96
2023-01-17T08:43:51.956Z,6.99
2023-01-17T08:46:18.727Z,7.00
2023-01-17T08:48:46.721Z,6.99
2023-01-17T08:51:13.539Z,7.00
2023-01-17T08:53:40.777Z,6.94
2023-01-17T08:56:07.801Z,6.93
2023-01-17T08:58:36.001Z,6.99
2023-01-17T09:01:04.267Z,6.99
2023-01-17T09:03:32.303Z,7.05
2023-01-17T09:06:07.211Z,7.02
2023-01-17T09:08:34.624Z,7.02
2023-01-17T09:11:05.549Z,7.02
2023-01-17T09:13:32.277Z,7.02
2023-01-17T09:15:59.754Z,7.02
2023-01-17T09:18:27.720Z,7.00
2023-01-17T09:20:55.428Z,6.97
2023-01-17T09:23:22.870Z,6.99
2023-01-17T09:25:57.147Z,6.99
2023-01-17T09:28:25.150Z,6.96
2023-01-17T09:30:52.924Z,6.95
2023-01-17T09:33:20.625Z,6.94
2023-01-17T09:35:47.704Z,6.94
2023-01-17T09:38:14.556Z,6.87
2023-01-17T09:40:49.029Z,6.96
2023-01-17T09:43:26.827Z,6.99
2023-01-17T09:45:53.734Z,7.02
2023-01-17T09:48:38.898Z,7.08
2023-01-17T09:51:26.947Z,7.10
2023-01-17T09:53:54.593Z,7.13
2023-01-17T09:56:40.315Z,7.16
2023-01-17T10:00:03.253Z,7.18
2023-01-17T10:02:39.864Z,7.22
2023-01-17T10:05:09.314Z,7.23
2023-01-17T10:07:59.303Z,7.23
2023-01-17T10:10:26.115Z,7.24
2023-01-17T10:13:15.061Z,7.23
2023-01-17T10:16:03.303Z,7.20
2023-01-17T10:18:49.021Z,7.20
2023-01-17T10:21:18.520Z,7.19
2023-01-17T10:24:06.745Z,7.19
2023-01-17T10:26:34.819Z,7.21
2023-01-17T10:29:06.066Z,7.22
2023-01-17T10:31:44.202Z,7.24
2023-01-17T10:34:22.142Z,7.30
2023-01-17T10:37:16.201Z,7.31
2023-01-17T10:39:45.518Z,7.38
2023-01-17T10:42:50.938Z,7.42
2023-01-17T10:45:28.978Z,7.48
2023-01-17T10:48:05.009Z,7.52
2023-01-17T10:50:43.087Z,7.54
2023-01-17T10:53:29.981Z,7.52
2023-01-17T10:55:56.796Z,7.54
2023-01-17T10:58:25.458Z,7.57
2023-01-17T11:01:22.032Z,7.60
2023-01-17T11:03:51.188Z,7.64
2023-01-17T11:06:17.871Z,7.68
2023-01-17T11:08:54.674Z,7.75
2023-01-17T11:11:25.772Z,7.89
2023-01-17T11:13:54.699Z,8.08
2023-01-17T11:16:27.483Z,8.31
2023-01-17T11:19:19.015Z,8.50
2023-01-17T11:22:16.153Z,8.63
2023-01-17T11:24:52.825Z,8.78
2023-01-17T11:27:29.276Z,8.93
2023-01-17T11:30:18.208Z,9.03
2023-01-17T11:32:59.632Z,9.17
2023-01-17T11:35:30.366Z,9.27
2023-01-17T11:38:03.156Z,9.42
2023-01-17T11:40:31.584Z,9.51
2023-01-17T11:43:18.764Z,9.59
2023-01-17T11:45:47.740Z,9.70
2023-01-17T11:48:17.459Z,9.83
2023-01-17T11:50:56.588Z,9.93
2023-01-17T11:53:33.529Z,10.02
2023-01-17T11:56:10.492Z,10.08
2023-01-17T11:58:40.467Z,10.12
2023-01-17T12:01:29.430Z,10.22
2023-01-17T12:04:14.713Z,10.27
2023-01-17T12:07:18.735Z,10.32
2023-01-17T12:09:57.518Z,10.36
2023-01-17T12:12:52.165Z,10.44
2023-01-17T12:15:23.930Z,10.52
2023-01-17T12:18:09.268Z,10.58
2023-01-17T12:21:03.294Z,10.61
2023-01-17T12:23:57.724Z,10.64
2023-01-17T12:27:04.277Z,10.64
2023-01-17T12:29:46.564Z,10.60
2023-01-17T12:32:31.819Z,10.52
2023-01-17T12:35:20.438Z,10.42
2023-01-17T12:38:05.397Z,10.36
2023-01-17T12:40:49.695Z,10.37
2023-01-17T12:43:28.003Z,10.38
2023-01-17T12:45:55.066Z,10.37
2023-01-17T12:48:23.455Z,10.40
2023-01-17T12:51:00.407Z,10.45
2023-01-17T12:54:06.431Z,10.50
2023-01-17T12:56:48.970Z,10.48
2023-01-17T12:59:19.269Z,10.45
2023-01-17T13:02:31.642Z,10.45
2023-01-17T13:05:11.465Z,10.48
2023-01-17T13:07:47.156Z,10.48
2023-01-17T13:10:37.445Z,10.48
2023-01-17T13:13:26.172Z,10.49
2023-01-17T13:16:05.141Z,10.47
2023-01-17T13:18:34.731Z,10.42
2023-01-17T13:21:30.431Z,10.40
2023-01-17T13:24:00.115Z,10.39
2023-01-17T13:26:47.641Z,10.36
2023-01-17T13:29:32.886Z,10.34
2023-01-17T13:32:36.886Z,10.32
2023-01-17T13:35:36.295Z,10.29
2023-01-17T13:38:34.787Z,10.24
2023-01-17T13:41:34.960Z,10.25
2023-01-17T13:44:21.279Z,10.24
2023-01-17T13:47:18.290Z,10.22
2023-01-17T13:49:48.851Z,10.18
2023-01-17T13:52:23.310Z,10.20
2023-01-17T13:54:52.428Z,10.19
2023-01-17T13:57:27.249Z,10.22
2023-01-17T14:00:21.595Z,10.20
2023-01-17T14:02:51.225Z,10.20
2023-01-17T14:05:23.046Z,10.14
2023-01-17T14:08:01.460Z,10.15
2023-01-17T14:10:38.712Z,10.13
2023-01-17T14:13:25.309Z,10.10
2023-01-17T14:15:52.337Z,10.06
2023-01-17T14:18:40.935Z,10.03
2023-01-17T14:21:35.093Z,10.01
2023-01-17T14:24:11.160Z,10.00
2023-01-17T14:26:52.285Z,9.95
2023-01-17T14:30:10.455Z,9.94
2023-01-17T14:32:38.725Z,9.93
2023-01-17T14:35:06.239Z,9.88
2023-01-17T14:37:33.044Z,9.88
2023-01-17T14:40:01.087Z,9.84
2023-01-17T14:42:30.925Z,9.85
2023-01-17T14:45:00.562Z,9.85
2023-01-17T14:47:31.921Z,9.81
2023-01-17T14:50:25.399Z,9.75
2023-01-17T14:53:13.631Z,9.63
2023-01-17T14:55:57.315Z,9.51
2023-01-17T14:58:26.922Z,9.44
2023-01-17T15:00:58.701Z,9.37
2023-01-17T15:03:25.948Z,9.31
2023-01-17T15:05:54.953Z,9.25
2023-01-17T15:08:33.224Z,9.21
2023-01-17T15:11:05.782Z,9.19
2023-01-17T15:13:44.205Z,9.18
2023-01-17T15:16:26.152Z,9.15
2023-01-17T15:18:54.798Z,9.12
2023-01-17T15:21:33.145Z,9.07
2023-01-17T15:24:04.326Z,9.10
2023-01-17T15:26:34.835Z,9.06
2023-01-17T15:29:08.076Z,8.97
2023-01-17T15:31:45.767Z,8.89
2023-01-17T15:34:43.330Z,8.81
2023-01-17T15:37:21.838Z,8.71
2023-01-17T15:39:48.737Z,8.63
2023-01-17T15:42:28.017Z,8.55
2023-01-17T15:44:56.813Z,8.49
2023-01-17T15:47:43.767Z,8.44
2023-01-17T15:50:31.022Z,8.38
2023-01-17T15:53:07.027Z,8.32
2023-01-17T15:55:39.022Z,8.28
2023-01-17T15:58:23.021Z,8.21
2023-01-17T16:00:50.157Z,8.16
2023-01-17T16:03:19.773Z,8.11
2023-01-17T16:05:48.039Z,8.05
2023-01-17T16:08:26.540Z,7.96
2023-01-17T16:11:02.149Z,7.92
2023-01-17T16:13:31.191Z,7.90
2023-01-17T16:16:12.223Z,7.85
2023-01-17T16:18:40.438Z,7.81
2023-01-17T16:21:28.964Z,7.82
2023-01-17T16:23:56.510Z,7.79
2023-01-17T16:26:24.081Z,7.74
2023-01-17T16:28:51.129Z,7.77
2023-01-17T16:31:18.771Z,7.78
2023-01-17T16:33:46.177Z,7.78
2023-01-17T16:36:16.835Z,7.74
2023-01-17T16:38:45.372Z,7.72
2023-01-17T16:41:12.173Z,7.71
2023-01-17T16:43:38.915Z,7.66
2023-01-17T16:46:05.992Z,7.59
2023-01-17T16:48:32.720Z,7.57
2023-01-17T16:51:04.859Z,7.53
2023-01-17T16:53:31.804Z,7.45
2023-01-17T16:56:06.082Z,7.48
2023-01-17T16:58:33.276Z,7.47
2023-01-17T17:01:00.365Z,7.47
2023-01-17T17:03:27.065Z,7.45
2023-01-17T17:05:59.614Z,7.43
2023-01-17T17:08:26.505Z,7.38
2023-01-17T17:10:53.355Z,7.38
2023-01-17T17:13:20.357Z,7.37
2023-01-17T17:15:47.205Z,7.36
2023-01-17T17:18:16.264Z,7.37
2023-01-17T17:20:44.738Z,7.36
2023-01-17T17:23:11.828Z,7.34
2023-01-17T17:25:38.653Z,7.35
2023-01-17T17:28:06.366Z,7.34
2023-01-17T17:30:33.532Z,7.34
2023-01-17T17:33:00.226Z,7.35
2023-01-17T17:35:27.156Z,7.35
2023-01-17T17:37:54.404Z,7.33
2023-01-17T17:40:21.256Z,7.25
2023-01-17T17:42:48.161Z,7.28
2023-01-17T17:45:14.773Z,7.26
2023-01-17T17:47:41.406Z,7.29
2023-01-17T17:50:09.299Z,7.29
2023-01-17T17:52:35.957Z,7.25
2023-01-17T17:55:02.604Z,7.18
2023-01-17T17:57:29.403Z,7.16
2023-01-17T17:59:56.850Z,7.14
2023-01-17T18:02:23.590Z,7.17
2023-01-17T18:04:50.379Z,7.21
2023-01-17T18:07:17.186Z,7.15
2023-01-17T18:09:43.911Z,7.26
2023-01-17T18:12:10.666Z,7.31
2023-01-17T18:14:37.438Z,7.32
2023-01-17T18:17:04.099Z,7.33
2023-01-17T18:19:30.938Z,7.34
2023-01-17T18:21:58.331Z,7.34
2023-01-17T18:24:25.435Z,7.32
2023-01-17T18:26:54.799Z,7.29
2023-01-17T18:29:23.915Z,7.20
2023-01-17T18:31:51.625Z,7.20
2023-01-17T18:34:23.311Z,7.17
2023-01-17T18:36:51.133Z,7.14
2023-01-17T18:39:24.726Z,7.10
2023-01-17T18:41:51.762Z,7.08
2023-01-17T18:44:22.003Z,7.04
2023-01-17T18:46:50.470Z,6.99
2023-01-17T18:49:19.498Z,6.96
2023-01-17T18:51:50.921Z,7.01
2023-01-17T18:54:20.355Z,7.05
2023-01-17T18:56:47.160Z,7.07
2023-01-17T18:59:16.089Z,7.09
2023-01-17T19:01:43.830Z,7.13
2023-01-17T19:04:12.296Z,7.14
2023-01-17T19:06:41.603Z,7.16
2023-01-17T19:09:10.414Z,7.16
2023-01-17T19:11:37.318Z,7.16
2023-01-17T19:14:05.417Z,7.17
2023-01-17T19:16:35.985Z,7.16
2023-01-17T19:19:05.637Z,7.17
2023-01-17T19:21:32.826Z,7.13
2023-01-17T19:24:00.301Z,7.14
2023-01-17T19:26:27.623Z,7.09
2023-01-17T19:28:56.707Z,7.10
2023-01-17T19:31:28.637Z,7.11
2023-01-17T19:33:57.544Z,7.10
2023-01-17T19:36:31.584Z,7.15
2023-01-17T19:39:04.799Z,7.16
2023-01-17T19:41:36.860Z,7.20
2023-01-17T19:44:07.319Z,7.22
2023-01-17T19:46:34.988Z,7.28
2023-01-17T19:49:02.068Z,7.29
2023-01-17T19:51:29.112Z,7.36
2023-01-17T19:53:56.623Z,7.40
2023-01-17T19:56:25.753Z,7.41
2023-01-17T19:58:53.202Z,7.46
2023-01-17T20:01:27.929Z,7.48
2023-01-17T20:03:57.587Z,7.48
2023-01-17T20:06:27.737Z,7.46
2023-01-17T20:08:54.690Z,7.52
2023-01-17T20:11:23.500Z,7.52
2023-01-17T20:13:57.599Z,7.53
2023-01-17T20:16:26.529Z,7.55
2023-01-17T20:18:53.516Z,7.54
2023-01-17T20:21:26.284Z,7.58
2023-01-17T20:23:54.514Z,7.59
2023-01-17T20:26:35.021Z,7.58
2023-01-17T20:29:10.447Z,7.60
2023-01-17T20:31:38.586Z,7.59
2023-01-17T20:34:06.180Z,7.63
2023-01-17T20:36:33.271Z,7.64
2023-01-17T20:39:01.073Z,7.65
2023-01-17T20:41:38.240Z,7.65
2023-01-17T20:44:06.973Z,7.65
2023-01-17T20:46:41.037Z,7.65
2023-01-17T20:49:15.469Z,7.64
2023-01-17T20:51:44.380Z,7.66
2023-01-17T20:54:14.458Z,7.66
2023-01-17T20:56:42.012Z,7.64
2023-01-17T20:59:13.076Z,7.65
2023-01-17T21:01:40.233Z,7.63
2023-01-17T21:04:10.769Z,7.66
2023-01-17T21:06:39.959Z,7.66
2023-01-17T21:09:07.400Z,7.63
2023-01-17T21:11:34.915Z,7.63
2023-01-17T21:14:01.781Z,7.58
2023-01-17T21:16:28.984Z,7.59
2023-01-17T21:18:56.065Z,7.57
2023-01-17T21:21:25.365Z,7.60
2023-01-17T21:23:54.807Z,7.60
2023-01-17T21:26:23.295Z,7.60
2023-01-17T21:28:50.868Z,7.59
2023-01-17T21:31:25.147Z,7.59
2023-01-17T21:33:56.109Z,7.58
2023-01-17T21:36:25.593Z,7.56
2023-01-17T21:38:56.983Z,7.51
2023-01-17T21:41:26.532Z,7.53
2023-01-17T21:43:58.415Z,7.56
2023-01-17T21:46:25.598Z,7.62
2023-01-17T21:48:52.986Z,7.67
2023-01-17T21:51:21.996Z,7.77
2023-01-17T21:53:48.856Z,7.87
2023-01-17T21:56:34.941Z,7.99
2023-01-17T21:59:02.052Z,8.14
2023-01-17T22:01:32.092Z,8.28
2023-01-17T22:04:04.279Z,8.35
2023-01-17T22:06:39.320Z,8.45
2023-01-17T22:09:06.332Z,8.57
2023-01-17T22:11:36.072Z,8.63
2023-01-17T22:14:05.973Z,8.69
2023-01-17T22:16:33.109Z,8.75
2023-01-17T22:18:59.897Z,8.80
2023-01-17T22:21:28.538Z,8.86
2023-01-17T22:23:57.854Z,8.89
2023-01-17T22:26:27.193Z,8.91
2023-01-17T22:28:54.907Z,8.95
2023-01-17T22:31:24.116Z,8.97
2023-01-17T22:33:58.778Z,9.03
2023-01-17T22:36:26.118Z,9.07
2023-01-17T22:38:52.888Z,9.11
2023-01-17T22:41:25.049Z,9.16
2023-01-17T22:43:54.017Z,9.16
2023-01-17T22:46:24.967Z,9.18
2023-01-17T22:48:52.901Z,9.27
2023-01-17T22:51:21.745Z,9.32
2023-01-17T22:53:51.340Z,9.34
2023-01-17T22:56:21.553Z,9.35
2023-01-17T22:58:49.204Z,9.41
2023-01-17T23:01:20.562Z,9.43
2023-01-17T23:03:52.728Z,9.48
2023-01-17T23:06:28.112Z,9.51
2023-01-17T23:08:58.391Z,9.58
2023-01-17T23:11:43.462Z,9.64
2023-01-17T23:14:23.690Z,9.69
2023-01-17T23:17:14.828Z,9.75
2023-01-17T23:19:48.410Z,9.80
2023-01-17T23:22:35.325Z,9.85
2023-01-17T23:25:06.825Z,9.90
2023-01-17T23:28:00.447Z,9.95
2023-01-17T23:30:39.101Z,9.99
2023-01-17T23:33:13.345Z,10.01
2023-01-17T23:35:43.431Z,10.07
2023-01-17T23:38:30.886Z,10.10
2023-01-17T23:41:24.891Z,10.13
2023-01-17T23:43:53.641Z,10.16
2023-01-17T23:46:20.687Z,10.15
2023-01-17T23:48:48.226Z,10.11
2023-01-17T23:51:15.029Z,10.13
2023-01-17T23:53:42.059Z,10.11
2023-01-17T23:56:21.329Z,10.10
2023-01-17T23:58:48.079Z,10.07
